Time;durP1;ratioP1;P1;durP2;ratioP2;P2;SDS_P1;SDS_P2;PMS_P1;PMS_P2;Temp;Humidity;BMP_temperature;BMP_pressure;BME280_temperature;BME280_humidity;BME280_pressure;Samples;Min_cycle;Max_cycle;Signal;HPM_P1;HPM_P2
2022/01/22 00:02:05;;;;;;;7.65;2.70;;;;;;;;;;4957280;28;20126;-81
2022/01/22 00:04:33;;;;;;;8.75;3.13;;;;;;;;;;4957398;29;20128;-80
2022/01/22 00:07:02;;;;;;;6.97;3.22;;;;;;;;;;4956963;28;20418;-80
2022/01/22 00:09:36;;;;;;;5.45;2.75;;;;;;;;;;4958715;28;20125;-81
2022/01/22 00:12:06;;;;;;;8.50;3.30;;;;;;;;;;4958000;29;20058;-80
2022/01/22 00:14:33;;;;;;;7.37;2.50;;;;;;;;;;4966524;29;20055;-80
2022/01/22 00:17:03;;;;;;;8.52;2.80;;;;;;;;;;4963817;29;20344;-80
2022/01/22 00:19:29;;;;;;;8.73;2.83;;;;;;;;;;4964037;28;20106;-80
2022/01/22 00:21:58;;;;;;;7.03;3.15;;;;;;;;;;4963842;28;20557;-80
2022/01/22 00:24:25;;;;;;;7.63;3.00;;;;;;;;;;4964471;29;20325;-80
2022/01/22 00:26:53;;;;;;;6.18;2.42;;;;;;;;;;4964511;28;20054;-80
2022/01/22 00:29:20;;;;;;;8.02;3.03;;;;;;;;;;4962538;29;20653;-80
2022/01/22 00:31:47;;;;;;;6.93;2.83;;;;;;;;;;4963605;28;20046;-80
2022/01/22 00:34:13;;;;;;;7.63;2.30;;;;;;;;;;4962650;28;20126;-80
2022/01/22 00:36:40;;;;;;;11.05;3.15;;;;;;;;;;4964039;29;20177;-80
2022/01/22 00:39:08;;;;;;;7.28;2.75;;;;;;;;;;4963430;29;20514;-80
2022/01/22 00:41:35;;;;;;;6.00;2.30;;;;;;;;;;4958224;28;20051;-80
2022/01/22 00:44:04;;;;;;;5.32;2.45;;;;;;;;;;4956434;29;20054;-80
2022/01/22 00:46:31;;;;;;;5.40;2.17;;;;;;;;;;4956115;29;20502;-80
2022/01/22 00:48:58;;;;;;;5.30;1.80;;;;;;;;;;4956580;29;20047;-80
2022/01/22 00:51:25;;;;;;;5.38;2.28;;;;;;;;;;4956666;28;20047;-80
2022/01/22 00:53:52;;;;;;;9.75;2.60;;;;;;;;;;4956127;29;20051;-80
2022/01/22 00:56:19;;;;;;;5.85;2.58;;;;;;;;;;4956095;29;20055;-80
2022/01/22 00:58:45;;;;;;;4.63;2.45;;;;;;;;;;4956001;28;20062;-80
2022/01/22 01:01:14;;;;;;;8.02;2.50;;;;;;;;;;4955932;28;20054;-80
2022/01/22 01:03:40;;;;;;;4.70;2.17;;;;;;;;;;4963681;28;20046;-81
2022/01/22 01:06:07;;;;;;;6.60;2.20;;;;;;;;;;4965515;28;20439;-81
2022/01/22 01:08:35;;;;;;;7.43;2.50;;;;;;;;;;4970161;28;20047;-81
2022/01/22 01:11:04;;;;;;;6.57;2.40;;;;;;;;;;4961180;28;20042;-81
2022/01/22 01:13:36;;;;;;;5.60;2.53;;;;;;;;;;4967281;28;20050;-81
2022/01/22 01:16:15;;;;;;;6.93;2.42;;;;;;;;;;4966922;28;20069;-81
2022/01/22 01:32:34;;;;;;;6.03;2.25;;;;;;;;;;4976904;28;20065;-81
2022/01/22 01:35:06;;;;;;;7.50;2.67;;;;;;;;;;4977207;28;20058;-80
2022/01/22 01:37:33;;;;;;;7.03;2.30;;;;;;;;;;4976002;28;20129;-81
2022/01/22 01:40:03;;;;;;;10.13;2.30;;;;;;;;;;4977690;28;20054;-81
2022/01/22 01:42:36;;;;;;;6.65;2.50;;;;;;;;;;4978114;28;20493;-81
2022/01/22 01:45:05;;;;;;;6.30;2.45;;;;;;;;;;4978049;28;20361;-80
2022/01/22 01:47:32;;;;;;;9.45;2.45;;;;;;;;;;4977807;28;20059;-80
2022/01/22 01:49:59;;;;;;;6.00;2.10;;;;;;;;;;4976793;28;20137;-81
2022/01/22 01:52:35;;;;;;;7.75;2.25;;;;;;;;;;4977745;28;20055;-80
2022/01/22 01:55:09;;;;;;;4.63;1.85;;;;;;;;;;4974709;28;20493;-80
2022/01/22 01:57:40;;;;;;;5.53;2.13;;;;;;;;;;4975480;28;20054;-80
2022/01/22 02:00:15;;;;;;;5.60;2.20;;;;;;;;;;4976152;28;20101;-80
2022/01/22 02:02:42;;;;;;;6.68;2.20;;;;;;;;;;4974714;28;20055;-79
2022/01/22 02:05:11;;;;;;;7.05;2.20;;;;;;;;;;4974354;28;20398;-79
2022/01/22 02:07:42;;;;;;;4.80;2.35;;;;;;;;;;4974823;28;20046;-79
2022/01/22 02:10:13;;;;;;;5.18;2.30;;;;;;;;;;4974896;28;20057;-80
2022/01/22 02:13:27;;;;;;;5.93;1.90;;;;;;;;;;4974157;28;20466;-80
2022/01/22 02:23:52;;;;;;;5.35;2.10;;;;;;;;;;4974722;28;20119;-80
2022/01/22 02:26:19;;;;;;;5.47;1.98;;;;;;;;;;4974608;28;20119;-80
2022/01/22 02:28:49;;;;;;;4.93;1.67;;;;;;;;;;4973877;28;20142;-80
2022/01/22 02:31:24;;;;;;;4.73;1.87;;;;;;;;;;4975616;28;20058;-80
2022/01/22 02:33:57;;;;;;;7.88;1.75;;;;;;;;;;4978669;28;20082;-80
2022/01/22 02:36:31;;;;;;;4.03;1.80;;;;;;;;;;4977929;28;20042;-79
2022/01/22 02:39:05;;;;;;;4.63;1.50;;;;;;;;;;4979089;28;20047;-79
2022/01/22 02:41:33;;;;;;;6.35;1.98;;;;;;;;;;4979381;28;20047;-80
2022/01/22 02:44:01;;;;;;;5.43;2.20;;;;;;;;;;4983454;28;20042;-80
2022/01/22 02:46:31;;;;;;;5.30;1.98;;;;;;;;;;4983264;28;20056;-80
2022/01/22 02:48:58;;;;;;;5.05;2.22;;;;;;;;;;4984033;28;20098;-80
2022/01/22 02:51:28;;;;;;;6.40;2.35;;;;;;;;;;4983985;28;20114;-80
2022/01/22 02:53:55;;;;;;;6.07;2.33;;;;;;;;;;4983439;28;20055;-81
2022/01/22 02:56:24;;;;;;;7.95;2.17;;;;;;;;;;4982108;28;20061;-81
2022/01/22 02:58:52;;;;;;;5.03;2.00;;;;;;;;;;4978119;28;20417;-81
2022/01/22 03:01:19;;;;;;;6.47;2.38;;;;;;;;;;4978184;28;20516;-81
2022/01/22 03:03:46;;;;;;;4.57;2.08;;;;;;;;;;4978052;28;20054;-81
2022/01/22 03:06:13;;;;;;;5.22;2.20;;;;;;;;;;4977670;28;20058;-80
2022/01/22 03:08:43;;;;;;;4.88;2.05;;;;;;;;;;4977708;28;20058;-80
2022/01/22 03:11:20;;;;;;;6.67;2.00;;;;;;;;;;4978175;28;20062;-80
2022/01/22 03:16:57;;;;;;;4.50;2.15;;;;;;;;;;4956416;29;20059;-81
2022/01/22 03:19:55;;;;;;;5.82;2.15;;;;;;;;;;4988371;28;20055;-80
2022/01/22 03:22:26;;;;;;;5.85;2.33;;;;;;;;;;4985027;28;20078;-81
2022/01/22 03:27:38;;;;;;;3.95;1.90;;;;;;;;;;4981407;28;20061;-81
2022/01/22 03:30:07;;;;;;;9.27;3.00;;;;;;;;;;4979180;28;20050;-80
2022/01/22 03:32:39;;;;;;;4.20;2.30;;;;;;;;;;4976696;28;20493;-80
2022/01/22 03:35:11;;;;;;;5.95;2.35;;;;;;;;;;4983174;28;20055;-80
2022/01/22 03:37:40;;;;;;;6.10;2.70;;;;;;;;;;4985484;28;20061;-79
2022/01/22 03:40:10;;;;;;;6.95;2.55;;;;;;;;;;4985107;28;20077;-79
2022/01/22 03:42:37;;;;;;;6.60;2.72;;;;;;;;;;4987146;28;20524;-80
2022/01/22 03:45:06;;;;;;;5.57;2.33;;;;;;;;;;4982190;28;20046;-80
2022/01/22 03:47:33;;;;;;;6.00;2.83;;;;;;;;;;4981495;28;20083;-81
2022/01/22 03:49:59;;;;;;;7.10;2.72;;;;;;;;;;4981096;28;20125;-81
2022/01/22 03:52:26;;;;;;;7.32;2.92;;;;;;;;;;4986659;28;20053;-79
2022/01/22 03:54:53;;;;;;;7.32;3.40;;;;;;;;;;4990226;28;20051;-80
2022/01/22 03:57:22;;;;;;;5.53;2.58;;;;;;;;;;4988405;28;20061;-80
2022/01/22 03:59:50;;;;;;;8.23;4.05;;;;;;;;;;4986154;28;20074;-80
2022/01/22 04:05:03;;;;;;;12.05;3.85;;;;;;;;;;4986605;28;20065;-80
2022/01/22 04:10:26;;;;;;;9.85;3.53;;;;;;;;;;4942895;29;20039;-79
2022/01/22 04:13:00;;;;;;;10.20;4.05;;;;;;;;;;4975255;28;20051;-82
2022/01/22 04:15:29;;;;;;;7.03;3.45;;;;;;;;;;4987621;28;20063;-80
2022/01/22 04:26:19;;;;;;;8.05;4.30;;;;;;;;;;4989218;28;20074;-79
2022/01/22 04:28:47;;;;;;;10.90;4.38;;;;;;;;;;4982013;28;20043;-80
2022/01/22 04:31:14;;;;;;;10.85;4.22;;;;;;;;;;4983590;28;20051;-80
2022/01/22 04:33:42;;;;;;;9.02;4.38;;;;;;;;;;4980164;28;20086;-80
2022/01/22 04:36:11;;;;;;;9.43;4.88;;;;;;;;;;4977335;28;20062;-80
2022/01/22 04:38:37;;;;;;;8.38;3.97;;;;;;;;;;4976066;28;20066;-80
2022/01/22 04:41:05;;;;;;;13.38;4.88;;;;;;;;;;4976412;28;20101;-79
2022/01/22 04:43:33;;;;;;;10.95;4.60;;;;;;;;;;4976175;28;20109;-80
2022/01/22 04:46:13;;;;;;;9.82;4.32;;;;;;;;;;4976128;28;20073;-80
2022/01/22 04:48:51;;;;;;;9.40;4.32;;;;;;;;;;4976288;28;20062;-80
2022/01/22 04:57:01;;;;;;;9.10;5.18;;;;;;;;;;4975233;28;20133;-80
2022/01/22 04:59:28;;;;;;;10.88;4.90;;;;;;;;;;4975147;28;20054;-80
2022/01/22 05:01:56;;;;;;;9.25;4.25;;;;;;;;;;4975242;28;20117;-79
2022/01/22 05:04:23;;;;;;;8.65;4.55;;;;;;;;;;4976454;28;20117;-79
2022/01/22 05:06:50;;;;;;;9.25;4.65;;;;;;;;;;4978801;28;20047;-79
2022/01/22 05:09:17;;;;;;;11.43;4.70;;;;;;;;;;4980511;28;20053;-82
2022/01/22 05:11:44;;;;;;;10.88;4.78;;;;;;;;;;4982572;28;20098;-80
2022/01/22 05:14:11;;;;;;;8.60;5.25;;;;;;;;;;4980984;28;20050;-80
2022/01/22 05:16:38;;;;;;;13.27;5.18;;;;;;;;;;4979782;28;20059;-80
2022/01/22 05:19:12;;;;;;;8.38;4.65;;;;;;;;;;4979378;28;20409;-79
2022/01/22 05:21:40;;;;;;;10.55;5.00;;;;;;;;;;4977455;28;20047;-80
2022/01/22 05:24:12;;;;;;;11.73;6.05;;;;;;;;;;4975435;28;20479;-80
2022/01/22 05:27:15;;;;;;;13.50;5.32;;;;;;;;;;4974180;28;20078;-80
2022/01/22 05:32:35;;;;;;;10.55;5.53;;;;;;;;;;4974804;28;20073;-80
2022/01/22 05:37:53;;;;;;;13.55;5.65;;;;;;;;;;4919047;28;20054;-81
2022/01/22 05:40:20;;;;;;;10.93;5.20;;;;;;;;;;4974212;28;20461;-80
2022/01/22 05:42:47;;;;;;;10.35;5.47;;;;;;;;;;4974230;28;20485;-80
2022/01/22 05:45:13;;;;;;;12.52;5.75;;;;;;;;;;5014695;23;20112;-79
2022/01/22 05:47:41;;;;;;;10.27;5.40;;;;;;;;;;5019813;28;20049;-78
2022/01/22 05:50:14;;;;;;;11.32;5.50;;;;;;;;;;5034532;28;20086;-77
2022/01/22 05:52:53;;;;;;;11.18;5.55;;;;;;;;;;5035210;28;20072;-77
2022/01/22 06:00:49;;;;;;;10.40;5.72;;;;;;;;;;5036022;28;20040;-77
2022/01/22 06:03:16;;;;;;;15.98;6.43;;;;;;;;;;5035869;28;20065;-78
2022/01/22 06:05:44;;;;;;;12.55;5.78;;;;;;;;;;5036166;28;20084;-77
2022/01/22 06:08:15;;;;;;;13.20;6.40;;;;;;;;;;5038839;28;20136;-78
2022/01/22 06:10:42;;;;;;;13.02;6.05;;;;;;;;;;5038398;28;20084;-78
2022/01/22 06:13:14;;;;;;;12.57;5.80;;;;;;;;;;5036045;28;20041;-78
2022/01/22 06:15:41;;;;;;;12.57;5.15;;;;;;;;;;5035467;28;20034;-79
2022/01/22 06:18:08;;;;;;;9.55;5.35;;;;;;;;;;5022552;28;20069;-78
2022/01/22 06:20:35;;;;;;;10.85;5.65;;;;;;;;;;5022162;28;20054;-78
2022/01/22 06:23:04;;;;;;;11.57;5.47;;;;;;;;;;5022941;28;20045;-78
2022/01/22 06:25:31;;;;;;;10.95;5.35;;;;;;;;;;5033790;28;20080;-76
2022/01/22 06:27:58;;;;;;;14.40;7.13;;;;;;;;;;5038845;28;20088;-77
2022/01/22 06:30:26;;;;;;;10.48;5.85;;;;;;;;;;5039181;28;20076;-77
2022/01/22 06:32:53;;;;;;;12.07;6.32;;;;;;;;;;5037521;28;20177;-78
2022/01/22 06:35:20;;;;;;;10.90;5.78;;;;;;;;;;5022882;28;20504;-78
2022/01/22 06:37:46;;;;;;;10.77;6.00;;;;;;;;;;5021667;28;20505;-78
2022/01/22 06:42:59;;;;;;;11.77;5.82;;;;;;;;;;5018471;28;20057;-77
2022/01/22 06:45:26;;;;;;;14.27;6.20;;;;;;;;;;5017621;28;20050;-78
2022/01/22 06:47:52;;;;;;;11.07;5.60;;;;;;;;;;5017383;28;20046;-77
2022/01/22 06:50:21;;;;;;;11.43;6.55;;;;;;;;;;5017707;28;20100;-78
2022/01/22 06:52:53;;;;;;;11.38;6.07;;;;;;;;;;5020101;28;20535;-78
2022/01/22 06:55:28;;;;;;;11.52;5.97;;;;;;;;;;5024690;28;20050;-77
2022/01/22 06:57:55;;;;;;;12.40;6.47;;;;;;;;;;5024097;28;20054;-77
2022/01/22 07:00:21;;;;;;;11.40;5.85;;;;;;;;;;5027044;28;20046;-78
2022/01/22 07:02:48;;;;;;;13.80;6.70;;;;;;;;;;5025710;28;20056;-79
2022/01/22 07:05:15;;;;;;;13.15;7.03;;;;;;;;;;5023576;28;20111;-77
2022/01/22 07:07:42;;;;;;;11.15;5.95;;;;;;;;;;5019858;28;20069;-78
2022/01/22 07:10:10;;;;;;;12.60;6.38;;;;;;;;;;5026505;28;20054;-78
2022/01/22 07:12:40;;;;;;;12.93;6.90;;;;;;;;;;5025723;28;20054;-78
2022/01/22 07:15:07;;;;;;;11.73;6.77;;;;;;;;;;5022518;28;20497;-78
2022/01/22 07:17:36;;;;;;;12.38;6.68;;;;;;;;;;5020821;28;20064;-78
2022/01/22 07:20:05;;;;;;;12.57;6.30;;;;;;;;;;5033836;28;20056;-78
2022/01/22 07:22:38;;;;;;;14.00;7.30;;;;;;;;;;5027754;28;20061;-78
2022/01/22 07:25:05;;;;;;;15.05;8.35;;;;;;;;;;5016687;28;20077;-77
2022/01/22 07:27:32;;;;;;;12.40;6.95;;;;;;;;;;5015798;28;20508;-77
2022/01/22 07:30:00;;;;;;;16.75;7.88;;;;;;;;;;5016122;28;20096;-77
2022/01/22 07:32:32;;;;;;;15.38;8.05;;;;;;;;;;5015820;28;20050;-77
2022/01/22 07:34:59;;;;;;;13.75;7.72;;;;;;;;;;5016879;28;20113;-78
2022/01/22 07:37:26;;;;;;;14.07;7.32;;;;;;;;;;5019763;28;20054;-77
2022/01/22 07:39:53;;;;;;;13.93;7.63;;;;;;;;;;5021121;28;20049;-78
2022/01/22 07:42:20;;;;;;;13.38;7.18;;;;;;;;;;5020660;28;20054;-79
2022/01/22 07:44:47;;;;;;;13.13;7.85;;;;;;;;;;5017762;28;20053;-77
2022/01/22 07:47:15;;;;;;;12.35;7.72;;;;;;;;;;5014687;28;20492;-77
2022/01/22 07:49:42;;;;;;;14.02;7.85;;;;;;;;;;5017276;28;20129;-78
2022/01/22 07:52:09;;;;;;;12.63;7.18;;;;;;;;;;5018539;28;20057;-77
2022/01/22 07:54:36;;;;;;;14.18;7.35;;;;;;;;;;5017946;28;20444;-78
2022/01/22 07:57:03;;;;;;;14.38;7.80;;;;;;;;;;5018382;28;20065;-76
2022/01/22 07:59:30;;;;;;;13.50;7.25;;;;;;;;;;5017715;28;20050;-78
2022/01/22 08:01:58;;;;;;;13.05;7.43;;;;;;;;;;5015633;28;20488;-79
2022/01/22 08:04:33;;;;;;;15.52;7.82;;;;;;;;;;5019661;28;20068;-79
2022/01/22 08:07:01;;;;;;;12.90;7.18;;;;;;;;;;5018803;28;20056;-78
2022/01/22 08:09:29;;;;;;;10.95;6.93;;;;;;;;;;5016560;28;20042;-78
2022/01/22 08:11:56;;;;;;;13.00;6.60;;;;;;;;;;5017471;28;20463;-77
2022/01/22 08:14:25;;;;;;;13.07;7.07;;;;;;;;;;5020076;28;20061;-79
2022/01/22 08:16:54;;;;;;;14.48;7.75;;;;;;;;;;5019179;28;20049;-79
2022/01/22 08:19:23;;;;;;;14.02;7.60;;;;;;;;;;5018166;28;20057;-78
2022/01/22 08:21:51;;;;;;;18.45;8.15;;;;;;;;;;5018331;28;20041;-79
2022/01/22 08:24:21;;;;;;;13.27;7.03;;;;;;;;;;5019808;28;20505;-78
2022/01/22 08:27:05;;;;;;;12.73;7.65;;;;;;;;;;5020973;28;20077;-78
2022/01/22 08:29:32;;;;;;;15.35;7.65;;;;;;;;;;5020940;28;20053;-77
2022/01/22 08:32:09;;;;;;;13.15;7.93;;;;;;;;;;5017971;28;20042;-80
2022/01/22 08:37:22;;;;;;;13.32;7.05;;;;;;;;;;5017777;28;20456;-78
2022/01/22 08:39:48;;;;;;;16.27;8.07;;;;;;;;;;5019982;28;20516;-79
2022/01/22 08:42:16;;;;;;;13.27;6.95;;;;;;;;;;5019147;28;20045;-78
2022/01/22 08:44:43;;;;;;;14.65;8.02;;;;;;;;;;5017856;28;20049;-77
2022/01/22 08:47:10;;;;;;;14.48;7.55;;;;;;;;;;5016216;28;20046;-78
2022/01/22 08:49:37;;;;;;;13.05;7.35;;;;;;;;;;5020196;28;20065;-78
2022/01/22 08:52:09;;;;;;;13.82;8.30;;;;;;;;;;5019792;28;20060;-78
2022/01/22 08:54:38;;;;;;;15.30;8.00;;;;;;;;;;5018577;28;20085;-79
2022/01/22 08:57:05;;;;;;;15.00;8.48;;;;;;;;;;5017553;28;20050;-78
2022/01/22 08:59:32;;;;;;;12.88;7.38;;;;;;;;;;5021432;28;20057;-79
2022/01/22 09:01:59;;;;;;;12.60;7.30;;;;;;;;;;5014824;28;20054;-77
2022/01/22 09:04:26;;;;;;;14.32;7.78;;;;;;;;;;5015539;28;20058;-80
2022/01/22 09:06:54;;;;;;;14.40;7.93;;;;;;;;;;5014624;28;20053;-77
2022/01/22 09:09:21;;;;;;;17.65;8.63;;;;;;;;;;5013721;28;20136;-79
2022/01/22 09:11:50;;;;;;;16.23;8.43;;;;;;;;;;5014180;28;20432;-77
2022/01/22 09:14:18;;;;;;;16.58;8.88;;;;;;;;;;5013270;28;20065;-78
2022/01/22 09:16:46;;;;;;;17.15;8.70;;;;;;;;;;5013722;28;20054;-77
2022/01/22 09:19:14;;;;;;;16.73;8.45;;;;;;;;;;5015083;28;20046;-78
2022/01/22 09:21:43;;;;;;;13.07;7.85;;;;;;;;;;5016156;28;20050;-79
2022/01/22 09:24:11;;;;;;;17.13;8.85;;;;;;;;;;5018623;28;20060;-78
2022/01/22 09:26:39;;;;;;;15.88;8.52;;;;;;;;;;5020543;28;20069;-78
2022/01/22 09:29:07;;;;;;;15.95;9.45;;;;;;;;;;5021876;28;20062;-78
2022/01/22 09:31:35;;;;;;;15.93;9.68;;;;;;;;;;5016778;28;20127;-78
2022/01/22 09:34:03;;;;;;;17.38;9.00;;;;;;;;;;5013820;28;20141;-77
2022/01/22 09:36:32;;;;;;;16.60;9.05;;;;;;;;;;5017078;28;20050;-78
2022/01/22 09:38:59;;;;;;;17.17;8.27;;;;;;;;;;5016893;28;20412;-77
2022/01/22 09:41:29;;;;;;;16.05;8.48;;;;;;;;;;5025138;28;20420;-77
2022/01/22 09:43:56;;;;;;;17.45;9.75;;;;;;;;;;5027087;28;20049;-77
2022/01/22 09:46:27;;;;;;;18.23;8.77;;;;;;;;;;5033301;28;20045;-78
2022/01/22 09:48:55;;;;;;;16.63;8.20;;;;;;;;;;5030219;28;20050;-77
2022/01/22 09:51:22;;;;;;;18.50;9.63;;;;;;;;;;5018169;28;20448;-78
2022/01/22 09:53:50;;;;;;;19.80;9.23;;;;;;;;;;5018462;28;20410;-78
2022/01/22 09:56:21;;;;;;;16.15;8.07;;;;;;;;;;5022297;28;20041;-79
2022/01/22 09:58:47;;;;;;;;;;;;;;;;;;5022197;28;20093;-78
2022/01/22 10:01:29;;;;;;;15.88;8.25;;;;;;;;;;5024710;28;20021;-78
2022/01/22 10:03:59;;;;;;;15.35;8.40;;;;;;;;;;5031266;28;20042;-78
2022/01/22 10:06:27;;;;;;;13.20;7.53;;;;;;;;;;5026788;28;20053;-77
2022/01/22 10:09:06;;;;;;;13.75;8.68;;;;;;;;;;5020069;28;20409;-78
2022/01/22 10:11:33;;;;;;;14.20;8.25;;;;;;;;;;5023135;28;20547;-78
2022/01/22 10:14:02;;;;;;;16.02;8.70;;;;;;;;;;5025533;28;20053;-78
2022/01/22 10:16:32;;;;;;;16.83;8.35;;;;;;;;;;5023780;28;20045;-79
2022/01/22 10:19:14;;;;;;;14.63;7.57;;;;;;;;;;5024228;28;20084;-77
2022/01/22 10:21:42;;;;;;;14.35;8.30;;;;;;;;;;5025112;28;20054;-79
2022/01/22 10:24:31;;;;;;;17.50;8.35;;;;;;;;;;5026296;28;20076;-79
2022/01/22 10:27:26;;;;;;;15.80;7.88;;;;;;;;;;5023657;28;20058;-79
2022/01/22 10:29:55;;;;;;;16.13;8.55;;;;;;;;;;5022972;28;20492;-79
2022/01/22 10:32:33;;;;;;;15.88;8.38;;;;;;;;;;5024914;28;20049;-79
2022/01/22 10:35:05;;;;;;;15.32;8.32;;;;;;;;;;5025198;28;20115;-80
2022/01/22 10:37:35;;;;;;;16.20;8.43;;;;;;;;;;5025478;28;20041;-79
2022/01/22 10:40:27;;;;;;;16.67;8.95;;;;;;;;;;5025152;28;20053;-79
2022/01/22 10:43:15;;;;;;;15.10;9.10;;;;;;;;;;5022813;28;20053;-78
2022/01/22 10:45:42;;;;;;;18.15;9.23;;;;;;;;;;5024409;28;20107;-78
2022/01/22 10:48:21;;;;;;;16.23;8.45;;;;;;;;;;5020849;28;20468;-78
2022/01/22 10:51:01;;;;;;;16.25;8.18;;;;;;;;;;5021677;28;20104;-77
2022/01/22 10:53:36;;;;;;;17.63;8.77;;;;;;;;;;5024871;28;20053;-78
2022/01/22 10:56:05;;;;;;;17.13;8.68;;;;;;;;;;5019585;28;20060;-77
2022/01/22 10:58:34;;;;;;;14.20;6.90;;;;;;;;;;5019828;28;20049;-78
2022/01/22 11:01:03;;;;;;;15.82;8.30;;;;;;;;;;5022947;28;20046;-79
2022/01/22 11:03:31;;;;;;;17.08;8.00;;;;;;;;;;5022650;28;20069;-78
2022/01/22 11:06:04;;;;;;;16.98;9.52;;;;;;;;;;5021945;28;20065;-79
2022/01/22 11:08:31;;;;;;;13.82;7.85;;;;;;;;;;5023939;28;20080;-79
2022/01/22 11:10:57;;;;;;;15.43;8.40;;;;;;;;;;5024302;28;20270;-78
2022/01/22 11:13:25;;;;;;;15.75;8.00;;;;;;;;;;5024590;28;20129;-78
2022/01/22 11:15:52;;;;;;;12.93;7.90;;;;;;;;;;5025466;28;20050;-79
2022/01/22 11:18:19;;;;;;;16.08;8.18;;;;;;;;;;5020927;28;20112;-78
2022/01/22 11:20:54;;;;;;;16.13;8.35;;;;;;;;;;5022097;28;20509;-79
2022/01/22 11:23:22;;;;;;;16.85;8.70;;;;;;;;;;5021766;28;20058;-78
2022/01/22 11:25:50;;;;;;;13.25;8.27;;;;;;;;;;5021233;28;20053;-78
2022/01/22 11:28:17;;;;;;;13.13;7.30;;;;;;;;;;5022812;28;20058;-78
2022/01/22 11:30:47;;;;;;;14.70;8.30;;;;;;;;;;5024034;28;20046;-78
2022/01/22 11:33:18;;;;;;;15.35;7.97;;;;;;;;;;5025501;28;20050;-78
2022/01/22 11:35:58;;;;;;;16.10;8.10;;;;;;;;;;5025138;28;20081;-77
2022/01/22 11:38:30;;;;;;;18.85;9.20;;;;;;;;;;5021724;28;20045;-78
2022/01/22 11:41:07;;;;;;;15.13;8.43;;;;;;;;;;5022879;28;20057;-78
2022/01/22 11:44:03;;;;;;;15.13;8.23;;;;;;;;;;5025345;28;20496;-78
2022/01/22 11:46:34;;;;;;;17.83;8.50;;;;;;;;;;5001203;23;20039;-80
2022/01/22 11:49:27;;;;;;;18.88;8.90;;;;;;;;;;4981952;28;20477;-80
2022/01/22 11:52:22;;;;;;;13.48;7.88;;;;;;;;;;4982376;28;20502;-80
2022/01/22 11:54:52;;;;;;;13.70;7.53;;;;;;;;;;4982501;28;20054;-80
2022/01/22 11:57:19;;;;;;;13.50;7.70;;;;;;;;;;4982899;28;20051;-79
2022/01/22 11:59:47;;;;;;;15.00;7.03;;;;;;;;;;4983082;28;20061;-79
2022/01/22 12:02:14;;;;;;;20.48;11.98;;;;;;;;;;4982024;28;20047;-80
2022/01/22 12:04:50;;;;;;;17.85;8.50;;;;;;;;;;4980550;28;20046;-81
2022/01/22 12:07:23;;;;;;;16.45;8.18;;;;;;;;;;4978951;28;20051;-79
2022/01/22 12:10:35;;;;;;;15.30;7.75;;;;;;;;;;4979288;28;20047;-79
2022/01/22 12:16:09;;;;;;;13.20;8.32;;;;;;;;;;4979571;28;20513;-78
2022/01/22 12:18:42;;;;;;;15.30;7.82;;;;;;;;;;4979803;28;20058;-79
2022/01/22 12:21:32;;;;;;;16.65;8.07;;;;;;;;;;4983936;28;20050;-80
2022/01/22 12:24:02;;;;;;;13.90;7.88;;;;;;;;;;4981360;28;20050;-80
2022/01/22 12:26:51;;;;;;;18.30;9.03;;;;;;;;;;4985949;28;20142;-79
2022/01/22 12:29:39;;;;;;;14.93;8.27;;;;;;;;;;4984559;28;20058;-80
2022/01/22 12:32:23;;;;;;;14.75;7.93;;;;;;;;;;4986912;28;20053;-80
2022/01/22 12:35:12;;;;;;;20.05;8.75;;;;;;;;;;4987014;28;20065;-80
2022/01/22 12:37:50;;;;;;;17.35;9.55;;;;;;;;;;4986459;28;20050;-79
2022/01/22 12:40:34;;;;;;;16.65;8.63;;;;;;;;;;4987052;28;20493;-79
2022/01/22 12:43:10;;;;;;;18.92;8.95;;;;;;;;;;4986638;28;20077;-80
2022/01/22 12:45:41;;;;;;;17.48;8.60;;;;;;;;;;4987002;28;20050;-80
2022/01/22 12:48:08;;;;;;;16.75;8.60;;;;;;;;;;4985520;28;20055;-79
2022/01/22 12:50:36;;;;;;;15.57;7.93;;;;;;;;;;4985854;28;20047;-81
2022/01/22 12:56:51;;;;;;;15.73;8.57;;;;;;;;;;4987338;28;20125;-82
2022/01/22 12:59:18;;;;;;;14.85;8.55;;;;;;;;;;4989595;28;20047;-82
2022/01/22 13:01:51;;;;;;;17.25;8.75;;;;;;;;;;4991061;28;20050;-82
2022/01/22 13:04:22;;;;;;;16.92;8.55;;;;;;;;;;4989632;28;20210;-82
2022/01/22 13:06:51;;;;;;;16.17;8.15;;;;;;;;;;4987067;28;20121;-85
2022/01/22 13:09:18;;;;;;;20.90;9.40;;;;;;;;;;4984503;28;20111;-83
2022/01/22 13:11:52;;;;;;;16.30;8.30;;;;;;;;;;4986333;28;20047;-84
2022/01/22 13:14:28;;;;;;;14.95;8.15;;;;;;;;;;4986761;28;20486;-82
2022/01/22 13:16:56;;;;;;;17.67;9.32;;;;;;;;;;4985940;28;20081;-82
2022/01/22 13:19:25;;;;;;;14.60;8.80;;;;;;;;;;4990260;28;20062;-81
2022/01/22 13:21:54;;;;;;;18.20;9.18;;;;;;;;;;4988014;28;20058;-82
2022/01/22 13:24:25;;;;;;;19.58;9.32;;;;;;;;;;4990023;28;20438;-80
2022/01/22 13:26:59;;;;;;;18.50;9.00;;;;;;;;;;4988790;28;20437;-81
2022/01/22 13:29:28;;;;;;;17.58;8.90;;;;;;;;;;4993320;28;20047;-81
2022/01/22 13:32:06;;;;;;;18.75;9.27;;;;;;;;;;4994600;28;20089;-82
2022/01/22 13:34:56;;;;;;;18.50;8.95;;;;;;;;;;4985657;28;20054;-82
2022/01/22 13:40:31;;;;;;;16.58;8.60;;;;;;;;;;4988924;28;20456;-83
2022/01/22 13:48:38;;;;;;;17.90;9.00;;;;;;;;;;4997916;28;20049;-81
2022/01/22 13:51:06;;;;;;;17.40;8.30;;;;;;;;;;4982889;28;20049;-81
2022/01/22 13:53:33;;;;;;;17.13;8.85;;;;;;;;;;4985988;28;20046;-83
2022/01/22 13:56:02;;;;;;;18.98;8.65;;;;;;;;;;4991029;28;20051;-81
2022/01/22 13:58:30;;;;;;;17.98;8.88;;;;;;;;;;4995218;28;20043;-82
2022/01/22 14:01:04;;;;;;;19.15;8.55;;;;;;;;;;4993925;28;20055;-82
2022/01/22 14:03:37;;;;;;;18.70;8.63;;;;;;;;;;4998171;28;20082;-80
2022/01/22 14:06:05;;;;;;;19.35;9.52;;;;;;;;;;4997919;28;20065;-80
2022/01/22 14:08:34;;;;;;;17.48;8.40;;;;;;;;;;4997587;28;20035;-81
2022/01/22 14:11:06;;;;;;;16.15;8.57;;;;;;;;;;4992999;28;20066;-82
2022/01/22 14:13:34;;;;;;;16.10;9.07;;;;;;;;;;4992400;28;20055;-81
2022/01/22 14:16:18;;;;;;;17.80;9.93;;;;;;;;;;4988012;28;20051;-82
2022/01/22 14:18:46;;;;;;;17.20;8.20;;;;;;;;;;4985767;28;20134;-82
2022/01/22 14:21:17;;;;;;;16.65;9.18;;;;;;;;;;4986810;28;20046;-83
2022/01/22 14:23:45;;;;;;;18.70;8.50;;;;;;;;;;4987773;28;20047;-82
2022/01/22 14:26:15;;;;;;;15.73;8.35;;;;;;;;;;4987932;28;20057;-81
2022/01/22 14:28:46;;;;;;;17.17;8.50;;;;;;;;;;4990652;28;20118;-81
2022/01/22 14:31:36;;;;;;;18.23;9.75;;;;;;;;;;4990840;28;20054;-82
2022/01/22 14:34:04;;;;;;;19.60;8.98;;;;;;;;;;4996134;28;20038;-81
2022/01/22 14:36:33;;;;;;;18.85;8.43;;;;;;;;;;4999538;28;20035;-79
2022/01/22 14:39:13;;;;;;;16.08;8.25;;;;;;;;;;4993609;28;20053;-80
2022/01/22 14:44:37;;;;;;;17.30;8.90;;;;;;;;;;4996217;28;20074;-81
2022/01/22 14:47:11;;;;;;;19.75;8.90;;;;;;;;;;4996539;28;20051;-81
2022/01/22 14:49:41;;;;;;;16.25;8.45;;;;;;;;;;4997230;28;20047;-80
2022/01/22 14:52:09;;;;;;;18.85;8.45;;;;;;;;;;4996747;28;20066;-81
2022/01/22 14:54:38;;;;;;;18.65;8.65;;;;;;;;;;4997645;28;20051;-80
2022/01/22 14:57:07;;;;;;;14.27;7.85;;;;;;;;;;4997469;28;20042;-80
2022/01/22 14:59:38;;;;;;;17.52;8.85;;;;;;;;;;4998349;28;20031;-80
2022/01/22 15:02:07;;;;;;;16.70;8.52;;;;;;;;;;4998021;28;20139;-81
2022/01/22 15:04:35;;;;;;;17.35;8.80;;;;;;;;;;4997979;28;20057;-80
2022/01/22 15:07:03;;;;;;;19.33;9.65;;;;;;;;;;4997120;28;20057;-82
2022/01/22 15:09:30;;;;;;;18.70;9.57;;;;;;;;;;4997207;28;20062;-80
2022/01/22 15:11:58;;;;;;;17.60;8.82;;;;;;;;;;4996371;28;20063;-81
2022/01/22 15:14:27;;;;;;;16.13;8.65;;;;;;;;;;4996419;28;20043;-80
2022/01/22 15:17:25;;;;;;;14.77;8.68;;;;;;;;;;4995064;28;20046;-80
2022/01/22 15:19:52;;;;;;;18.27;8.95;;;;;;;;;;4996122;28;20075;-81
2022/01/22 15:22:20;;;;;;;17.02;9.48;;;;;;;;;;4995682;28;20089;-82
2022/01/22 15:24:49;;;;;;;16.30;9.18;;;;;;;;;;4994663;28;20046;-81
2022/01/22 15:27:17;;;;;;;18.55;8.48;;;;;;;;;;4994229;28;20062;-83
2022/01/22 15:29:54;;;;;;;16.30;8.63;;;;;;;;;;4994971;28;20055;-82
2022/01/22 15:32:39;;;;;;;18.52;8.45;;;;;;;;;;4994835;28;20042;-82
2022/01/22 15:35:09;;;;;;;14.43;8.02;;;;;;;;;;4994302;28;20058;-82
2022/01/22 15:37:37;;;;;;;18.98;9.68;;;;;;;;;;4994384;28;20046;-84
2022/01/22 15:40:05;;;;;;;19.40;9.65;;;;;;;;;;4994464;28;20051;-82
2022/01/22 15:42:33;;;;;;;19.25;9.75;;;;;;;;;;4992824;28;20057;-80
2022/01/22 15:45:00;;;;;;;19.15;9.55;;;;;;;;;;4989584;28;20051;-83
2022/01/22 15:47:28;;;;;;;23.20;10.07;;;;;;;;;;4992851;28;20073;-83
2022/01/22 15:49:56;;;;;;;19.90;10.73;;;;;;;;;;4992559;28;20486;-82
2022/01/22 15:52:24;;;;;;;19.73;9.82;;;;;;;;;;4993030;28;20047;-81
2022/01/22 15:54:51;;;;;;;19.88;9.93;;;;;;;;;;4988172;28;20057;-80
2022/01/22 15:57:18;;;;;;;20.40;9.77;;;;;;;;;;4986802;28;20047;-81
2022/01/22 15:59:46;;;;;;;19.60;9.35;;;;;;;;;;4985971;28;20429;-82
2022/01/22 16:02:12;;;;;;;21.25;10.48;;;;;;;;;;4985983;28;20058;-82
2022/01/22 16:04:48;;;;;;;19.95;10.60;;;;;;;;;;4985309;28;20101;-81
2022/01/22 16:07:20;;;;;;;24.13;10.88;;;;;;;;;;4984439;28;20043;-81
2022/01/22 16:09:50;;;;;;;21.27;11.15;;;;;;;;;;4981578;28;20482;-82
2022/01/22 16:12:17;;;;;;;19.20;9.60;;;;;;;;;;4980848;28;20086;-83
2022/01/22 16:14:44;;;;;;;20.63;10.35;;;;;;;;;;4985513;28;20050;-82
2022/01/22 16:17:11;;;;;;;20.17;10.18;;;;;;;;;;4979152;28;20050;-83